CheckWX is a tool to help pilots better visualize weather data.  It is not intended as a substitute for an official pre-flight weather briefing.

23:24:40 UTC

KDEC METAR
Decatur Airport
Decatur, Illinois, USA
Current

31 mins ago

KDEC 242254Z 19018G28KT 10SM CLR 30/19 A2995 RMK AO2 PK WND 19028/2245 SLP135 T03000194
Observed
May-24 @ 22:54 UTC
Wind
  • 190° at 18 KTS
  • Gusting to 28 KTS
Visibility
10 SM
Flight Rules
VFR
Cloud Levels
  • Clear skies
Temperature
30°C / 86°F
Dewpoint
19°C / 66°F
Heat Index
31°C / 88°F
Humidity
52%
Altimeter
29.95" Hg
Pressure
1014.22 hPa
Previous

2 hours ago

KDEC 242154Z 17020G29KT 10SM FEW045 30/21 A2995 RMK AO2 PK WND 18029/2153 SLP134 T03000206
Observed
May-24 @ 21:54 UTC
Wind
  • 170° at 20 KTS
  • Gusting to 29 KTS
Visibility
10 SM
Flight Rules
VFR
Cloud Levels
  • Few at 4,500' AGL
Temperature
30°C / 86°F
Dewpoint
21°C / 70°F
Heat Index
33°C / 91°F
Humidity
59%
Altimeter
29.95" Hg
Pressure
1014.22 hPa
Previous

3 hours ago

KDEC 242054Z 19014KT 10SM FEW044 30/20 A3000 RMK AO2 SLP151 T03000200 58019
Observed
May-24 @ 20:54 UTC
Wind
  • 190° at 14 KTS
Visibility
10 SM
Flight Rules
VFR
Cloud Levels
  • Few at 4,400' AGL
Temperature
30°C / 86°F
Dewpoint
20°C / 68°F
Heat Index
32°C / 89°F
Humidity
55%
Altimeter
30" Hg
Pressure
1015.92 hPa